sensor_id;sensor_type;location;lat;lon;timestamp;temperature;humidity
55026;DHT22;40925;45.666;18.994;2023-05-19T00:00:57;358.40;2329.60
55026;DHT22;40925;45.666;18.994;2023-05-19T00:03:23;358.40;2329.60
55026;DHT22;40925;45.666;18.994;2023-05-19T00:05:52;333.70;2329.60
55026;DHT22;40925;45.666;18.994;2023-05-19T00:08:18;358.40;2329.60
55026;DHT22;40925;45.666;18.994;2023-05-19T00:10:45;333.70;2329.60
55026;DHT22;40925;45.666;18.994;2023-05-19T00:13:11;358.40;2329.60
55026;DHT22;40925;45.666;18.994;2023-05-19T00:15:37;358.40;2329.60
55026;DHT22;40925;45.666;18.994;2023-05-19T00:18:04;333.70;2329.60
55026;DHT22;40925;45.666;18.994;2023-05-19T00:20:30;333.70;2329.60
55026;DHT22;40925;45.666;18.994;2023-05-19T00:22:56;358.40;2329.60
55026;DHT22;40925;45.666;18.994;2023-05-19T00:25:22;333.70;2329.60
55026;DHT22;40925;45.666;18.994;2023-05-19T00:27:48;358.40;2329.60
55026;DHT22;40925;45.666;18.994;2023-05-19T00:30:13;333.70;2329.60
55026;DHT22;40925;45.666;18.994;2023-05-19T00:32:39;333.70;2329.60
55026;DHT22;40925;45.666;18.994;2023-05-19T00:35:05;333.70;2329.60
55026;DHT22;40925;45.666;18.994;2023-05-19T00:37:31;333.70;2329.60
55026;DHT22;40925;45.666;18.994;2023-05-19T00:39:57;333.70;2329.60
55026;DHT22;40925;45.666;18.994;2023-05-19T00:42:24;333.70;2329.60
55026;DHT22;40925;45.666;18.994;2023-05-19T00:44:50;333.70;2329.60
55026;DHT22;40925;45.666;18.994;2023-05-19T00:47:16;333.70;2329.60
55026;DHT22;40925;45.666;18.994;2023-05-19T00:49:42;358.40;2329.60
55026;DHT22;40925;45.666;18.994;2023-05-19T00:52:07;333.70;2329.60
55026;DHT22;40925;45.666;18.994;2023-05-19T00:54:33;333.70;2329.60
55026;DHT22;40925;45.666;18.994;2023-05-19T00:57:00;333.70;2329.60
55026;DHT22;40925;45.666;18.994;2023-05-19T00:59:26;333.70;2329.60
55026;DHT22;40925;45.666;18.994;2023-05-19T01:01:52;333.70;2329.60
55026;DHT22;40925;45.666;18.994;2023-05-19T01:04:19;333.70;2329.60
55026;DHT22;40925;45.666;18.994;2023-05-19T01:06:49;333.70;2329.60
55026;DHT22;40925;45.666;18.994;2023-05-19T01:09:22;333.70;2329.60
55026;DHT22;40925;45.666;18.994;2023-05-19T01:11:49;333.70;2329.60
55026;DHT22;40925;45.666;18.994;2023-05-19T01:14:15;333.70;2329.60
55026;DHT22;40925;45.666;18.994;2023-05-19T01:26:07;333.70;2329.60
55026;DHT22;40925;45.666;18.994;2023-05-19T01:31:22;358.40;2329.60
55026;DHT22;40925;45.666;18.994;2023-05-19T01:33:51;358.40;2329.60
55026;DHT22;40925;45.666;18.994;2023-05-19T01:36:19;358.40;2329.60
55026;DHT22;40925;45.666;18.994;2023-05-19T01:38:49;358.40;2329.60
55026;DHT22;40925;45.666;18.994;2023-05-19T01:41:16;333.70;2329.60
55026;DHT22;40925;45.666;18.994;2023-05-19T01:43:43;333.70;2329.60
55026;DHT22;40925;45.666;18.994;2023-05-19T01:46:10;333.50;2329.60
55026;DHT22;40925;45.666;18.994;2023-05-19T01:48:36;333.70;2329.60
55026;DHT22;40925;45.666;18.994;2023-05-19T01:51:03;333.70;2329.60
55026;DHT22;40925;45.666;18.994;2023-05-19T01:53:28;358.40;2329.60
55026;DHT22;40925;45.666;18.994;2023-05-19T01:55:55;333.70;2329.60
55026;DHT22;40925;45.666;18.994;2023-05-19T01:58:52;333.70;2329.60
55026;DHT22;40925;45.666;18.994;2023-05-19T02:01:29;333.70;2329.60
55026;DHT22;40925;45.666;18.994;2023-05-19T02:04:06;333.70;2329.60
55026;DHT22;40925;45.666;18.994;2023-05-19T02:17:37;358.40;2329.60
55026;DHT22;40925;45.666;18.994;2023-05-19T02:20:05;358.40;2329.60
55026;DHT22;40925;45.666;18.994;2023-05-19T02:22:31;358.40;2329.60
55026;DHT22;40925;45.666;18.994;2023-05-19T02:24:57;358.40;2329.60
55026;DHT22;40925;45.666;18.994;2023-05-19T02:27:23;358.40;2329.60
55026;DHT22;40925;45.666;18.994;2023-05-19T02:29:48;358.40;2329.60
55026;DHT22;40925;45.666;18.994;2023-05-19T02:32:14;358.40;2329.60
55026;DHT22;40925;45.666;18.994;2023-05-19T02:34:40;358.50;2329.60
55026;DHT22;40925;45.666;18.994;2023-05-19T02:37:12;358.50;2329.60
55026;DHT22;40925;45.666;18.994;2023-05-19T02:39:39;358.40;2329.60
55026;DHT22;40925;45.666;18.994;2023-05-19T02:42:05;358.50;2329.60
55026;DHT22;40925;45.666;18.994;2023-05-19T02:44:30;358.50;2329.60
55026;DHT22;40925;45.666;18.994;2023-05-19T02:46:57;358.50;2329.60
55026;DHT22;40925;45.666;18.994;2023-05-19T02:49:22;358.50;2329.60
55026;DHT22;40925;45.666;18.994;2023-05-19T02:51:48;358.50;2329.60
55026;DHT22;40925;45.666;18.994;2023-05-19T02:54:14;358.50;2329.60
55026;DHT22;40925;45.666;18.994;2023-05-19T02:56:39;358.50;2329.60
55026;DHT22;40925;45.666;18.994;2023-05-19T02:59:05;358.50;2329.60
55026;DHT22;40925;45.666;18.994;2023-05-19T03:01:31;358.50;2329.60
55026;DHT22;40925;45.666;18.994;2023-05-19T03:03:57;358.40;2329.60
55026;DHT22;40925;45.666;18.994;2023-05-19T03:06:23;358.40;2329.60
55026;DHT22;40925;45.666;18.994;2023-05-19T03:08:49;358.50;2329.60
55026;DHT22;40925;45.666;18.994;2023-05-19T03:11:15;358.50;2329.60
55026;DHT22;40925;45.666;18.994;2023-05-19T03:13:41;358.50;2329.60
55026;DHT22;40925;45.666;18.994;2023-05-19T03:16:07;358.50;2329.60
55026;DHT22;40925;45.666;18.994;2023-05-19T03:18:33;358.50;2329.60
55026;DHT22;40925;45.666;18.994;2023-05-19T03:20:59;358.50;2329.60
55026;DHT22;40925;45.666;18.994;2023-05-19T03:23:25;358.50;2329.60
55026;DHT22;40925;45.666;18.994;2023-05-19T03:25:51;358.50;2329.60
55026;DHT22;40925;45.666;18.994;2023-05-19T03:28:21;358.50;2329.60
55026;DHT22;40925;45.666;18.994;2023-05-19T03:30:48;358.50;2329.60
55026;DHT22;40925;45.666;18.994;2023-05-19T03:33:16;358.50;2329.60
55026;DHT22;40925;45.666;18.994;2023-05-19T03:35:42;358.50;2329.60
55026;DHT22;40925;45.666;18.994;2023-05-19T03:38:09;358.60;2329.60
55026;DHT22;40925;45.666;18.994;2023-05-19T03:40:34;358.50;2329.60
55026;DHT22;40925;45.666;18.994;2023-05-19T03:43:00;358.50;2329.60
55026;DHT22;40925;45.666;18.994;2023-05-19T03:45:26;358.50;2329.60
55026;DHT22;40925;45.666;18.994;2023-05-19T03:47:52;358.50;2329.60
55026;DHT22;40925;45.666;18.994;2023-05-19T03:50:18;358.60;2329.60
55026;DHT22;40925;45.666;18.994;2023-05-19T03:52:44;358.60;2329.60
55026;DHT22;40925;45.666;18.994;2023-05-19T03:55:11;358.60;2329.60
55026;DHT22;40925;45.666;18.994;2023-05-19T03:57:38;358.70;2329.60
55026;DHT22;40925;45.666;18.994;2023-05-19T04:00:04;358.70;2329.60
55026;DHT22;40925;45.666;18.994;2023-05-19T04:02:30;358.70;2329.60
55026;DHT22;40925;45.666;18.994;2023-05-19T04:04:56;358.70;2329.60
55026;DHT22;40925;45.666;18.994;2023-05-19T04:07:22;358.70;2329.60
55026;DHT22;40925;45.666;18.994;2023-05-19T04:09:48;358.70;2329.60
55026;DHT22;40925;45.666;18.994;2023-05-19T04:12:15;358.70;2329.60
55026;DHT22;40925;45.666;18.994;2023-05-19T04:14:41;358.70;2329.60
55026;DHT22;40925;45.666;18.994;2023-05-19T04:17:07;358.80;2329.60
55026;DHT22;40925;45.666;18.994;2023-05-19T04:19:32;358.80;2329.60
55026;DHT22;40925;45.666;18.994;2023-05-19T04:21:58;358.80;2329.60
55026;DHT22;40925;45.666;18.994;2023-05-19T04:24:24;358.80;2329.60
55026;DHT22;40925;45.666;18.994;2023-05-19T04:26:50;358.80;2329.60
55026;DHT22;40925;45.666;18.994;2023-05-19T04:29:16;358.80;2329.60
55026;DHT22;40925;45.666;18.994;2023-05-19T04:31:46;358.90;2329.60
55026;DHT22;40925;45.666;18.994;2023-05-19T04:39:04;359.30;2329.60
55026;DHT22;40925;45.666;18.994;2023-05-19T04:41:33;359.10;2329.60
55026;DHT22;40925;45.666;18.994;2023-05-19T04:43:59;359.10;2329.60
55026;DHT22;40925;45.666;18.994;2023-05-19T04:46:25;359.10;2329.60
55026;DHT22;40925;45.666;18.994;2023-05-19T04:48:51;359.10;2329.60
55026;DHT22;40925;45.666;18.994;2023-05-19T04:51:18;359.00;2329.60
55026;DHT22;40925;45.666;18.994;2023-05-19T04:53:44;359.30;2329.60
55026;DHT22;40925;45.666;18.994;2023-05-19T04:56:10;359.00;2329.60
55026;DHT22;40925;45.666;18.994;2023-05-19T04:58:40;359.00;2329.60
55026;DHT22;40925;45.666;18.994;2023-05-19T05:01:06;359.10;2329.60
55026;DHT22;40925;45.666;18.994;2023-05-19T05:03:33;359.10;2329.60
55026;DHT22;40925;45.666;18.994;2023-05-19T05:05:59;359.10;2329.60
55026;DHT22;40925;45.666;18.994;2023-05-19T05:08:25;359.00;2329.60
55026;DHT22;40925;45.666;18.994;2023-05-19T05:10:52;359.10;2329.60
55026;DHT22;40925;45.666;18.994;2023-05-19T05:13:22;359.10;2329.60
55026;DHT22;40925;45.666;18.994;2023-05-19T05:15:48;359.20;2329.60
55026;DHT22;40925;45.666;18.994;2023-05-19T05:18:14;359.30;2329.60
55026;DHT22;40925;45.666;18.994;2023-05-19T05:20:44;359.30;2329.60
55026;DHT22;40925;45.666;18.994;2023-05-19T05:23:11;384.00;2329.60
55026;DHT22;40925;45.666;18.994;2023-05-19T05:25:42;384.00;2329.60
55026;DHT22;40925;45.666;18.994;2023-05-19T05:28:08;384.00;2329.60
55026;DHT22;40925;45.666;18.994;2023-05-19T05:30:35;359.30;2329.60
55026;DHT22;40925;45.666;18.994;2023-05-19T05:33:01;359.30;2329.60
55026;DHT22;40925;45.666;18.994;2023-05-19T05:35:27;359.30;2329.60
55026;DHT22;40925;45.666;18.994;2023-05-19T05:37:53;359.30;2329.60
55026;DHT22;40925;45.666;18.994;2023-05-19T05:40:19;359.20;2329.60
55026;DHT22;40925;45.666;18.994;2023-05-19T05:42:45;359.20;2329.60
55026;DHT22;40925;45.666;18.994;2023-05-19T05:45:10;359.30;2329.60
55026;DHT22;40925;45.666;18.994;2023-05-19T05:47:36;358.80;2329.60
55026;DHT22;40925;45.666;18.994;2023-05-19T05:50:05;359.30;2329.60
55026;DHT22;40925;45.666;18.994;2023-05-19T05:52:31;359.20;2329.60
55026;DHT22;40925;45.666;18.994;2023-05-19T05:54:57;359.20;2329.60
55026;DHT22;40925;45.666;18.994;2023-05-19T05:57:23;359.20;2329.60
55026;DHT22;40925;45.666;18.994;2023-05-19T05:59:49;359.20;2329.60
55026;DHT22;40925;45.666;18.994;2023-05-19T06:02:16;359.20;2329.60
55026;DHT22;40925;45.666;18.994;2023-05-19T06:04:42;359.20;2329.60
55026;DHT22;40925;45.666;18.994;2023-05-19T06:07:08;359.20;2329.60
55026;DHT22;40925;45.666;18.994;2023-05-19T06:09:34;359.20;2329.60
55026;DHT22;40925;45.666;18.994;2023-05-19T06:12:00;359.30;2329.60
55026;DHT22;40925;45.666;18.994;2023-05-19T06:14:26;359.30;2329.60
55026;DHT22;40925;45.666;18.994;2023-05-19T06:16:51;384.00;2329.60
55026;DHT22;40925;45.666;18.994;2023-05-19T06:19:17;384.10;2329.60
55026;DHT22;40925;45.666;18.994;2023-05-19T06:21:44;384.20;2329.60
55026;DHT22;40925;45.666;18.994;2023-05-19T06:24:10;384.30;2329.60
55026;DHT22;40925;45.666;18.994;2023-05-19T06:26:36;384.50;2329.60
55026;DHT22;40925;45.666;18.994;2023-05-19T06:29:02;384.50;2329.60
55026;DHT22;40925;45.666;18.994;2023-05-19T06:31:28;384.60;2329.60
55026;DHT22;40925;45.666;18.994;2023-05-19T06:33:54;384.80;2329.60
55026;DHT22;40925;45.666;18.994;2023-05-19T06:36:19;384.80;2329.60
55026;DHT22;40925;45.666;18.994;2023-05-19T06:38:45;384.90;2329.60
55026;DHT22;40925;45.666;18.994;2023-05-19T06:41:11;384.90;2329.60
55026;DHT22;40925;45.666;18.994;2023-05-19T06:43:37;409.60;2355.20
55026;DHT22;40925;45.666;18.994;2023-05-19T06:46:03;409.60;2355.20
55026;DHT22;40925;45.666;18.994;2023-05-19T06:48:29;384.90;2329.60
55026;DHT22;40925;45.666;18.994;2023-05-19T06:50:55;384.90;2329.60
55026;DHT22;40925;45.666;18.994;2023-05-19T06:53:21;384.90;2329.60
55026;DHT22;40925;45.666;18.994;2023-05-19T06:55:47;384.90;2329.60
55026;DHT22;40925;45.666;18.994;2023-05-19T06:58:15;409.60;2355.20
55026;DHT22;40925;45.666;18.994;2023-05-19T07:00:41;409.70;2355.20
55026;DHT22;40925;45.666;18.994;2023-05-19T07:03:08;409.70;2355.20
55026;DHT22;40925;45.666;18.994;2023-05-19T07:05:34;409.80;2355.20
55026;DHT22;40925;45.666;18.994;2023-05-19T07:07:59;409.80;2355.20
55026;DHT22;40925;45.666;18.994;2023-05-19T07:10:26;409.90;2355.20
55026;DHT22;40925;45.666;18.994;2023-05-19T07:12:52;409.90;2355.20
55026;DHT22;40925;45.666;18.994;2023-05-19T07:15:17;410.00;2355.20
55026;DHT22;40925;45.666;18.994;2023-05-19T07:17:43;410.00;2355.20
55026;DHT22;40925;45.666;18.994;2023-05-19T07:20:09;410.10;2355.20
55026;DHT22;40925;45.666;18.994;2023-05-19T07:22:36;410.20;2355.20
55026;DHT22;40925;45.666;18.994;2023-05-19T07:25:04;410.40;2355.20
55026;DHT22;40925;45.666;18.994;2023-05-19T07:27:30;410.40;2355.20
55026;DHT22;40925;45.666;18.994;2023-05-19T07:29:57;410.40;2355.20
55026;DHT22;40925;45.666;18.994;2023-05-19T07:32:24;410.40;2355.20
55026;DHT22;40925;45.666;18.994;2023-05-19T07:34:50;435.20;2355.20
55026;DHT22;40925;45.666;18.994;2023-05-19T07:37:16;410.50;2176.00
55026;DHT22;40925;45.666;18.994;2023-05-19T07:39:41;435.50;2355.20
55026;DHT22;40925;45.666;18.994;2023-05-19T07:42:07;435.60;2355.20
55026;DHT22;40925;45.666;18.994;2023-05-19T07:46:59;461.10;2380.80
55026;DHT22;40925;45.666;18.994;2023-05-19T07:51:52;486.60;2380.80
55026;DHT22;40925;45.666;18.994;2023-05-19T07:54:18;486.50;2380.80
55026;DHT22;40925;45.666;18.994;2023-05-19T07:59:10;487.20;2380.80
55026;DHT22;40925;45.666;18.994;2023-05-19T08:01:36;512.10;2380.80
55026;DHT22;40925;45.666;18.994;2023-05-19T08:08:57;512.30;2380.80
55026;DHT22;40925;45.666;18.994;2023-05-19T08:18:41;537.80;2406.40
55026;DHT22;40925;45.666;18.994;2023-05-19T08:21:07;537.60;2406.40
55026;DHT22;40925;45.666;18.994;2023-05-19T08:23:33;512.90;2380.80
55026;DHT22;40925;45.666;18.994;2023-05-19T08:25:59;537.60;2406.40
55026;DHT22;40925;45.666;18.994;2023-05-19T08:28:26;537.70;2406.40
55026;DHT22;40925;45.666;18.994;2023-05-19T08:30:51;538.00;2406.40
55026;DHT22;40925;45.666;18.994;2023-05-19T08:33:17;538.30;2406.40
55026;DHT22;40925;45.666;18.994;2023-05-19T08:35:45;563.20;2432.00
55026;DHT22;40925;45.666;18.994;2023-05-19T08:38:12;538.30;2406.40
55026;DHT22;40925;45.666;18.994;2023-05-19T08:40:41;538.40;2406.40
55026;DHT22;40925;45.666;18.994;2023-05-19T08:43:07;538.30;2406.40
55026;DHT22;40925;45.666;18.994;2023-05-19T08:47:59;538.50;2406.40
55026;DHT22;40925;45.666;18.994;2023-05-19T08:56:00;563.30;2432.00
55026;DHT22;40925;45.666;18.994;2023-05-19T09:13:09;589.10;2432.00
55026;DHT22;40925;45.666;18.994;2023-05-19T09:15:37;588.90;2432.00
55026;DHT22;40925;45.666;18.994;2023-05-19T09:18:11;589.10;2432.00
55026;DHT22;40925;45.666;18.994;2023-05-19T09:20:42;589.40;2432.00
55026;DHT22;40925;45.666;18.994;2023-05-19T09:23:15;589.50;2432.00
55026;DHT22;40925;45.666;18.994;2023-05-19T09:25:50;589.20;2432.00
55026;DHT22;40925;45.666;18.994;2023-05-19T09:28:26;589.40;2432.00
55026;DHT22;40925;45.666;18.994;2023-05-19T09:31:03;589.30;2432.00
55026;DHT22;40925;45.666;18.994;2023-05-19T09:33:31;589.20;2432.00
55026;DHT22;40925;45.666;18.994;2023-05-19T09:35:57;589.30;2432.00
55026;DHT22;40925;45.666;18.994;2023-05-19T09:38:23;589.20;2432.00
55026;DHT22;40925;45.666;18.994;2023-05-19T09:40:51;589.30;2432.00
55026;DHT22;40925;45.666;18.994;2023-05-19T09:43:17;589.40;2432.00
55026;DHT22;40925;45.666;18.994;2023-05-19T09:45:43;589.60;2432.00
55026;DHT22;40925;45.666;18.994;2023-05-19T19:26:13;537.60;2406.40
55026;DHT22;40925;45.666;18.994;2023-05-19T19:28:38;512.80;2380.80
55026;DHT22;40925;45.666;18.994;2023-05-19T19:31:04;512.70;2380.80
55026;DHT22;40925;45.666;18.994;2023-05-19T19:45:43;512.40;2380.80
55026;DHT22;40925;45.666;18.994;2023-05-19T19:48:09;512.00;2380.80
55026;DHT22;40925;45.666;18.994;2023-05-19T19:57:57;487.30;2380.80
55026;DHT22;40925;45.666;18.994;2023-05-19T21:06:08;486.40;2380.80
